ADDS METAR Data INFO
IDs: Format: Raw Decoded Include TAF

Data at: 0349 UTC 19 Feb 2018

KAXH 190335Z AUTO 16008KT 10SM OVC007 20/19 A3004 RMK AO2 T01970191
KAXH 190315Z AUTO 14007KT 10SM OVC007 20/19 A3004 RMK AO2 T01980192
KAXH 190255Z AUTO 13005KT 10SM OVC007 20/19 A3004 RMK AO2 T01960190
KAXH 190235Z AUTO 13006KT 10SM OVC007 20/19 A3004 RMK AO2 T01960190
KAXH 190215Z AUTO 15005KT 10SM BKN007 BKN015 BKN026 20/19 A3004 RMK AO2 T01960190
KAXH 190155Z AUTO 14005KT 10SM SCT007 SCT012 SCT018 20/19 A3004 RMK AO2 T01970191
KAXH 190135Z AUTO 14006KT 10SM SCT007 SCT016 BKN029 20/19 A3004 RMK AO2 T02000192
KAXH 190115Z AUTO 15006KT 10SM SCT009 SCT016 BKN022 20/19 A3004 RMK AO2 T02010192
KAXH 190055Z AUTO 15004KT 10SM SCT015 SCT022 SCT031 21/19 A3004 RMK AO2 T02060193
KAXH 190035Z AUTO 16006KT 10SM SCT012 21/19 A3004 RMK AO2 T02090193
KAXH 190015Z AUTO 16007KT 10SM SCT018 SCT037 21/19 A3004 RMK AO2 T02130191
KAXH 182355Z AUTO 10SM BKN018 BKN044 22/19 A3003 RMK AO2 T02210190 10260 20221
KAXH 182335Z AUTO 15010G15KT 10SM SCT022 SCT042 23/19 A3003 RMK AO2 T02280190
KAXH 182315Z AUTO 16009G17KT 10SM SCT024 23/19 A3003 RMK AO2 T02330189
KAXH 182255Z AUTO 17011G15KT 10SM SCT024 25/19 A3003 RMK AO2 T02450188
KAXH 182235Z AUTO 15011G16KT 10SM SCT024 25/19 A3003 RMK AO2 T02450192
KAXH 182215Z AUTO 16012G16KT 10SM BKN026 BKN032 25/19 A3003 RMK AO2 T02490190
KAXH 182155Z AUTO 15014G19KT 10SM SCT024 BKN033 25/19 A3003 RMK AO2 T02510190
KAXH 182135Z AUTO 16010G16KT 10SM SCT026 SCT035 26/20 A3003 RMK AO2 T02580195
KAXH 182115Z AUTO 14010G17KT 10SM SCT026 BKN033 BKN055 25/19 A3004 RMK AO2 T02490193
KAXH 182055Z AUTO 15011G15KT 10SM SCT026 BKN033 OVC060 26/20 A3004 RMK AO2 T02560196
KAXH 182035Z AUTO 15009KT 10SM SCT026 BKN032 OVC070 25/19 A3005 RMK AO2 T02520192
KAXH 182015Z AUTO 16006G14KT 10SM SCT027 BKN034 OVC070 26/20 A3005 RMK AO2 T02570196
KAXH 181955Z AUTO 16009KT 10SM SCT027 SCT032 BKN038 26/19 A3006 RMK AO2 T02560190
KAXH 181935Z AUTO 16008KT 10SM BKN027 BKN035 BKN043 25/19 A3007 RMK AO2 T02480191
KAXH 181915Z AUTO 16008KT 10SM BKN024 BKN028 BKN049 25/19 A3008 RMK AO2 T02470191
KAXH 181855Z AUTO 16006KT 10SM BKN022 BKN028 BKN049 25/20 A3010 RMK AO2 T02520196
KAXH 181835Z AUTO 17007G15KT 10SM SCT017 SCT024 SCT060 25/20 A3011 RMK AO2 T02510195
KAXH 181815Z AUTO 16006G15KT 10SM BKN012 25/20 A3012 RMK AO2 T02500203
KAXH 181755Z AUTO 15006KT 10SM OVC010 23/20 A3013 RMK AO2 T02320200 10232 20160
KAXH 181735Z AUTO 14005KT 10SM OVC010 22/19 A3015 RMK AO2 T02170194
KAXH 181715Z AUTO 00000KT 7SM OVC006 21/19 A3015 RMK AO2 T02060190
KAXH 181655Z AUTO 12003KT 7SM OVC004 20/19 A3016 RMK AO2 T02010185
KAXH 181635Z AUTO 15004KT 4SM BR OVC002 19/18 A3016 RMK AO2 T01930184
KAXH 181615Z AUTO 15004KT 4SM BR OVC002 19/18 A3016 RMK AO2 T01900183
KAXH 181555Z AUTO 13003KT 2 1/2SM BR OVC002 18/18 A3016 RMK AO2 T01830178
KAXH 181535Z AUTO 11003KT 1 1/2SM BR OVC002 18/18 A3015 RMK AO2 T01780175
KAXH 181515Z AUTO 10003KT 1SM BR OVC002 17/17 A3015 RMK AO2 T01740171
KAXH 181455Z AUTO 10004KT 3/4SM BR OVC002 17/17 A3014 RMK AO2 T01700167
KAXH 181435Z AUTO 09004KT 3/4SM BR OVC002 17/16 A3014 RMK AO2 T01650164
KAXH 181415Z AUTO 09004KT 1/2SM FG OVC002 16/16 A3014 RMK AO2 T01630161
KAXH 181355Z AUTO 09003KT 1/2SM FG OVC002 16/16 A3013 RMK AO2 T01620160
KAXH 181335Z AUTO 09005KT 1/2SM FG OVC004 16/16 A3012 RMK AO2 T01600157
KAXH 181315Z AUTO 09004KT 1 1/2SM BR OVC004 16/16 A3012 RMK AO2 T01600156
KAXH 181255Z AUTO 10004KT 5SM BR OVC006 16/15 A3012 RMK AO2 T01620153
KAXH 181235Z AUTO 07005KT 7SM OVC006 16/15 A3011 RMK AO2 T01610150
KAXH 181215Z AUTO 08004KT 7SM OVC006 16/15 A3011 RMK AO2 T01610150
KAXH 181155Z AUTO 00000KT 7SM OVC006 16/15 A3012 RMK AO2 T01600148 10167 20160
KAXH 181135Z AUTO 08005KT 7SM OVC006 16/15 A3012 RMK AO2 T01600147
KAXH 181115Z AUTO 08004KT 7SM OVC008 16/15 A3012 RMK AO2 T01610147
KAXH 181055Z AUTO 07004KT 10SM OVC008 16/14 A3012 RMK AO2 T01610143
KAXH 181035Z AUTO 03004KT 7SM OVC008 16/14 A3012 RMK AO2 T01610144
KAXH 181015Z AUTO 06003KT 7SM OVC008 16/15 A3012 RMK AO2 T01620146
KAXH 180955Z AUTO 06005KT 7SM OVC008 17/15 A3012 RMK AO2 T01650147
KAXH 180935Z AUTO 00000KT 10SM OVC008 16/14 A3011 RMK AO2 T01630143
KAXH 180915Z AUTO 06005KT 10SM OVC008 16/14 A3011 RMK AO2 T01620141
KAXH 180855Z AUTO 04003KT 10SM OVC008 16/14 A3011 RMK AO2 T01610142
KAXH 180835Z AUTO 05003KT 10SM OVC008 16/14 A3011 RMK AO2 T01610140
KAXH 180815Z AUTO 05004KT 10SM OVC008 16/14 A3011 RMK AO2 T01600139
KAXH 180755Z AUTO 03004KT 10SM OVC008 16/14 A3012 RMK AO2 T01620137
KAXH 180735Z AUTO 02004KT 10SM OVC008 16/14 A3012 RMK AO2 T01620137
KAXH 180715Z AUTO 04004KT 10SM OVC008 16/14 A3013 RMK AO2 T01630137
KAXH 180655Z AUTO 04003KT 10SM OVC008 16/14 A3013 RMK AO2 T01620137
KAXH 180635Z AUTO 03003KT 10SM OVC008 17/14 A3012 RMK AO2 T01650137
KAXH 180615Z AUTO 02004KT 10SM OVC008 17/14 A3013 RMK AO2 T01660139
KAXH 180555Z AUTO 04003KT 10SM OVC010 17/14 A3013 RMK AO2 T01670138 10240 20158
KAXH 180535Z AUTO 04003KT 10SM OVC010 17/14 A3013 RMK AO2 T01660137
KAXH 180515Z AUTO 04003KT 10SM OVC010 17/14 A3014 RMK AO2 T01660137
KAXH 180455Z AUTO 04003KT 10SM OVC012 17/14 A3014 RMK AO2 T01650136
KAXH 180435Z AUTO 02003KT 10SM OVC012 16/14 A3014 RMK AO2 T01630136
KAXH 180415Z AUTO 00000KT 10SM BKN016 BKN027 OVC032 16/14 A3015 RMK AO2 T01600135
KAXH 180355Z AUTO 04003KT 10SM SCT018 SCT030 16/14 A3015 RMK AO2 T01600135
KAXH 180335Z AUTO 04004KT 10SM SCT030 16/14 A3015 RMK AO2 T01600135
KAXH 180315Z AUTO 04004KT 10SM SCT034 SCT075 16/13 A3015 RMK AO2 T01630134
KAXH 180255Z AUTO 03004KT 10SM SCT027 BKN034 OVC075 17/13 A3015 RMK AO2 T01680133
KAXH 180235Z AUTO 02006KT 10SM SCT027 SCT032 BKN048 17/13 A3016 RMK AO2 T01700131
KAXH 180215Z AUTO 02008KT 10SM SCT023 SCT036 OVC046 18/13 A3015 RMK AO2 T01780134
KAXH 180155Z AUTO 36007KT 10SM OVC023 19/14 A3015 RMK AO2 T01880141
KAXH 180135Z AUTO 35009KT 10SM OVC025 20/15 A3013 RMK AO2 T01950147
KAXH 180115Z AUTO 36008G15KT 10SM SCT027 BKN033 OVC040 21/16 A3012 RMK AO2 T02100156
KAXH 180055Z AUTO 20004KT 10SM BKN040 BKN047 OVC065 23/18 A3010 RMK AO2 T02340184
KAXH 180035Z AUTO 19003KT 10SM SCT050 OVC065 23/19 A3009 RMK AO2 T02330185
KAXH 180015Z AUTO 00000KT 10SM SCT036 BKN050 OVC065 24/19 A3009 RMK AO2 T02350185
KAXH 172355Z AUTO 00000KT 10SM BKN036 OVC055 24/19 A3009 RMK AO2 T02400185 10260 20214
KAXH 172335Z AUTO 21003KT 10SM SCT036 BKN065 24/18 A3009 RMK AO2 T02440183
KAXH 172315Z AUTO 22003KT 10SM BKN065 25/19 A3008 RMK AO2 T02500187
KAXH 172255Z AUTO 24006KT 10SM SCT055 SCT065 25/19 A3007 RMK AO2 T02520185
KAXH 172235Z AUTO 19008KT 10SM SCT055 26/19 A3007 RMK AO2 T02570188
KAXH 172215Z AUTO 24006KT 10SM CLR 26/19 A3007 RMK AO2 T02570186
KAXH 172155Z AUTO 23003KT 10SM CLR 26/19 A3006 RMK AO2 T02560186
KAXH 172135Z AUTO 22007KT 10SM CLR 25/19 A3006 RMK AO2 T02530187
KAXH 172115Z AUTO 25006KT 10SM SCT060 25/19 A3006 RMK AO2 T02480186
KAXH 172055Z AUTO 26004KT 10SM SCT060 24/18 A3006 RMK AO2 T02360181
KAXH 172035Z AUTO 31005KT 10SM SCT031 SCT050 OVC060 23/18 A3007 RMK AO2 T02310180
KAXH 172015Z AUTO 31008KT 10SM SCT027 SCT050 BKN060 24/19 A3008 RMK AO2 T02370189
KAXH 171955Z AUTO 33007KT 10SM SCT070 25/20 A3008 RMK AO2 T02510195
KAXH 171935Z AUTO 26005KT 10SM SCT065 24/20 A3008 RMK AO2 T02410196
KAXH 171915Z AUTO 32003KT 10SM BKN065 23/19 A3009 RMK AO2 T02340193
KAXH 171855Z AUTO 29004KT 10SM OVC065 22/20 A3009 RMK AO2 T02230195
KAXH 171835Z AUTO 33004KT 7SM SCT017 BKN065 OVC075 21/20 A3010 RMK AO2 T02140196
KAXH 171815Z AUTO 30009KT 7SM RA BKN017 BKN026 OVC060 22/20 A3011 RMK AO2 T02240200
KAXH 171755Z AUTO 29008G14KT 10SM SCT021 BKN060 OVC070 25/20 A3011 RMK AO2 T02450200 10247 20200
KAXH 171735Z AUTO 26006KT 10SM -RA BKN018 BKN036 OVC060 23/20 A3012 RMK AO2 T02270200
KAXH 171715Z AUTO 24006KT 10SM SCT018 BKN024 OVC060 25/20 A3012 RMK AO2 T02450202
KAXH 171655Z AUTO 21008KT 10SM BKN017 BKN026 OVC044 23/20 A3012 RMK AO2 T02340201
KAXH 171635Z AUTO 22007KT 10SM OVC013 23/20 A3012 RMK AO2 T02340200
KAXH 171615Z AUTO 20007KT 10SM OVC013 24/20 A3012 RMK AO2 T02350202
KAXH 171555Z AUTO 23005KT 10SM BKN011 OVC017 22/20 A3012 RMK AO2 T02210201